Time;durP1;ratioP1;P1;durP2;ratioP2;P2;SDS_P1;SDS_P2;PMS_P1;PMS_P2;Temp;Humidity;BMP_temperature;BMP_pressure;BME280_temperature;BME280_humidity;BME280_pressure;Samples;Min_cycle;Max_cycle;Signal;HPM_P1;HPM_P2
2023/03/30 07:01:19;;;;;;;16.33;0.97;;;13.50;99.90;15.80;100355.00;;;;6308967;22;20173;-70
2023/03/30 07:03:46;;;;;;;1.67;1.57;;;13.70;99.90;15.60;100362.00;;;;6309532;22;20153;-70
2023/03/30 07:06:12;;;;;;;12.40;2.33;;;13.70;99.90;15.00;100356.00;;;;6256708;22;20153;-70
2023/03/30 07:08:39;;;;;;;1.47;0.50;;;13.50;99.90;14.50;100305.00;;;;6309409;22;20205;-70
2023/03/30 07:11:06;;;;;;;1.13;0.80;;;13.30;99.90;14.80;100367.00;;;;6309372;22;20132;-69
2023/03/30 07:13:36;;;;;;;4.27;0.70;;;13.20;99.90;14.50;100367.00;;;;6309197;22;20177;-68
2023/03/30 07:16:10;;;;;;;4.87;0.80;;;13.20;99.90;14.70;100308.00;;;;6282930;22;20229;-69
2023/03/30 07:18:42;;;;;;;1.53;1.00;;;13.10;99.90;15.00;100374.00;;;;6281953;22;20141;-75
2023/03/30 07:21:08;;;;;;;1.03;1.03;;;13.40;99.90;14.70;100380.00;;;;6255812;22;20154;-72
2023/03/30 07:23:34;;;;;;;0.37;0.37;;;13.30;99.90;15.50;100376.00;;;;6281378;22;20157;-72
2023/03/30 07:26:00;;;;;;;2.30;0.63;;;13.50;99.90;14.50;100385.00;;;;6256261;22;20236;-72
2023/03/30 07:28:29;;;;;;;0.30;0.30;;;13.20;99.90;14.60;100392.00;;;;6308969;22;20157;-72
2023/03/30 07:31:56;;;;;;;2.53;1.53;;;13.10;99.90;14.50;100400.00;;;;6281975;22;20571;-72
2023/03/30 07:34:49;;;;;;;4.47;0.73;;;13.40;99.90;14.70;100386.00;;;;6309164;22;20142;-72
2023/03/30 07:37:30;;;;;;;1.47;1.40;;;13.40;99.90;15.90;100395.00;;;;6309409;22;20590;-72
2023/03/30 07:40:08;;;;;;;4.80;1.70;;;13.90;99.90;15.60;100414.00;;;;6256422;22;20155;-73
2023/03/30 07:43:17;;;;;;;5.90;1.53;;;14.20;99.90;16.00;100415.00;;;;6280506;22;20140;-73
2023/03/30 07:46:03;;;;;;;6.00;1.80;;;14.20;99.90;15.30;100376.00;;;;6279658;22;20164;-76
2023/03/30 07:48:35;;;;;;;6.07;2.20;;;14.20;99.90;15.40;100424.00;;;;6254816;22;20230;-85
2023/03/30 07:51:12;;;;;;;0.87;0.83;;;14.30;99.90;16.30;100447.00;;;;6256501;22;20260;-70
2023/03/30 07:53:46;;;;;;;3.53;1.13;;;14.80;99.90;15.20;100452.00;;;;6308859;22;20170;-84
2023/03/30 07:56:22;;;;;;;4.50;1.10;;;14.40;99.90;15.00;100386.00;;;;6281806;22;20155;-84
2023/03/30 07:58:47;;;;;;;3.17;1.93;;;14.00;99.90;15.20;100406.00;;;;6281465;22;20229;-85
2023/03/30 08:01:13;;;;;;;5.70;1.33;;;14.00;99.90;15.20;100426.00;;;;6276356;22;20521;-84
2023/03/30 08:03:57;;;;;;;4.07;2.67;;;14.00;99.90;15.30;100439.00;;;;6275888;22;20147;-74
2023/03/30 08:07:00;;;;;;;4.80;1.23;;;14.10;99.90;15.60;100451.00;;;;6276739;22;20154;-76
2023/03/30 08:09:29;;;;;;;4.07;1.10;;;14.30;99.90;15.50;100457.00;;;;6276323;22;20240;-75
2023/03/30 08:11:56;;;;;;;1.43;0.73;;;14.20;99.90;15.60;100451.00;;;;6276614;22;20178;-75
2023/03/30 08:14:50;;;;;;;2.37;2.00;;;14.30;99.90;15.80;100415.00;;;;6275757;22;20158;-76
2023/03/30 08:17:45;;;;;;;1.77;1.40;;;14.20;99.90;15.50;100453.00;;;;6250444;22;20155;-69
2023/03/30 08:20:11;;;;;;;12.37;2.07;;;14.30;99.90;16.00;100475.00;;;;6277821;22;20145;-74
2023/03/30 08:22:42;;;;;;;11.43;3.37;;;14.30;99.90;15.30;100463.00;;;;6275959;22;20146;-74
2023/03/30 08:25:34;;;;;;;9.60;2.40;;;13.80;99.90;15.60;100486.00;;;;6250761;22;20206;-74
2023/03/30 08:28:13;;;;;;;6.73;2.97;;;14.00;99.90;15.80;100482.00;;;;6276256;22;20521;-75
2023/03/30 08:31:04;;;;;;;4.70;0.87;;;14.40;99.90;15.10;100479.00;;;;6275985;22;20161;-75
2023/03/30 08:33:30;;;;;;;2.47;1.47;;;13.80;99.90;16.70;100496.00;;;;6249353;22;20210;-74
2023/03/30 08:36:04;;;;;;;2.57;1.33;;;14.30;99.90;16.30;100512.00;;;;6276576;22;20240;-74
2023/03/30 08:38:32;;;;;;;3.63;1.37;;;14.60;99.90;16.20;100514.00;;;;6251264;22;20156;-74
2023/03/30 08:41:00;;;;;;;7.37;2.67;;;14.70;99.90;16.40;100498.00;;;;6277400;22;20587;-74
2023/03/30 08:43:44;;;;;;;8.90;1.97;;;14.70;99.90;15.40;100502.00;;;;6250778;22;20579;-74
2023/03/30 08:46:19;;;;;;;9.63;2.70;;;14.20;99.90;15.90;100499.00;;;;6277320;22;20165;-75
2023/03/30 08:48:56;;;;;;;6.83;2.03;;;14.40;99.90;15.40;100514.00;;;;6250543;22;20152;-74
2023/03/30 08:51:30;;;;;;;0.60;0.60;;;14.20;99.90;16.20;100512.00;;;;6276089;22;20147;-74
2023/03/30 08:54:02;;;;;;;5.93;1.47;;;14.30;99.90;15.50;100515.00;;;;6247634;22;20155;-74
2023/03/30 08:56:41;;;;;;;4.90;1.47;;;14.20;99.90;16.20;100529.00;;;;6276249;22;20611;-74
2023/03/30 08:59:47;;;;;;;4.03;2.00;;;14.40;99.90;15.60;100519.00;;;;6277157;22;20164;-74
2023/03/30 09:02:22;;;;;;;0.47;0.47;;;14.20;99.90;16.80;100533.00;;;;6219590;22;20206;-75
2023/03/30 09:05:49;;;;;;;2.27;1.13;;;14.70;99.90;16.60;100535.00;;;;6250311;22;20157;-74
2023/03/30 09:08:27;;;;;;;4.63;1.40;;;14.50;99.90;15.50;100508.00;;;;6124221;23;20170;-73
2023/03/30 09:11:05;;;;;;;10.30;1.90;;;14.40;99.90;15.70;100494.00;;;;6076169;23;20275;-74
2023/03/30 09:13:38;;;;;;;3.10;2.03;;;14.40;99.90;16.00;100531.00;;;;6224932;22;20196;-74
2023/03/30 09:16:18;;;;;;;9.60;1.37;;;14.40;99.90;15.50;100522.00;;;;6249714;22;20235;-74
2023/03/30 09:19:13;;;;;;;3.63;1.53;;;14.10;99.90;15.50;100522.00;;;;6250154;22;20591;-69
2023/03/30 09:22:02;;;;;;;6.93;2.27;;;14.10;99.90;16.10;100541.00;;;;6249920;22;20148;-74
2023/03/30 09:24:58;;;;;;;6.43;3.03;;;14.40;99.90;15.80;100537.00;;;;6249896;22;20584;-73
2023/03/30 09:28:26;;;;;;;0.57;0.57;;;14.30;99.90;16.70;100548.00;;;;6248541;22;20225;-70
2023/03/30 09:31:21;;;;;;;8.77;1.70;;;14.50;99.90;16.80;100563.00;;;;6249996;22;20216;-74
2023/03/30 09:34:15;;;;;;;2.20;0.80;;;14.90;99.90;16.00;100538.00;;;;6208751;22;20225;-74
2023/03/30 09:36:50;;;;;;;1.03;0.73;;;14.50;99.90;16.00;100505.00;;;;6123484;23;20163;-74
2023/03/30 09:39:48;;;;;;;0.53;0.53;;;14.60;99.90;16.80;100550.00;;;;6123937;23;20170;-74
2023/03/30 09:43:33;;;;;;;1.53;1.17;;;14.90;99.90;16.30;100551.00;;;;6213116;22;20293;-73
2023/03/30 09:46:48;;;;;;;6.60;1.57;;;14.70;99.90;16.10;100546.00;;;;6099095;23;20166;-74
2023/03/30 09:50:03;;;;;;;0.43;0.43;;;14.70;99.90;16.80;100559.00;;;;6100387;23;20186;-74
2023/03/30 09:53:25;;;;;;;4.70;1.23;;;15.30;99.90;16.50;100531.00;;;;6107452;23;20216;-74
2023/03/30 09:56:11;;;;;;;3.67;1.50;;;15.10;99.90;15.30;100539.00;;;;6123107;23;20238;-74
2023/03/30 09:59:16;;;;;;;3.47;2.00;;;14.50;99.90;15.30;100492.00;;;;6099606;23;20244;-73
2023/03/30 10:01:45;;;;;;;15.83;1.47;;;14.20;99.90;14.80;100524.00;;;;6145841;22;20164;-75
2023/03/30 10:04:31;;;;;;;4.13;1.47;;;13.90;99.90;14.00;100501.00;;;;6250023;22;20154;-74
2023/03/30 10:07:21;;;;;;;1.43;0.50;;;13.30;99.90;14.10;100491.00;;;;6227292;22;20159;-74
2023/03/30 10:10:27;;;;;;;2.07;1.87;;;13.00;99.90;15.10;100514.00;;;;6276835;22;20148;-74
2023/03/30 10:13:14;;;;;;;1.37;1.27;;;13.40;99.90;14.70;100493.00;;;;6275823;22;20203;-76
2023/03/30 10:16:07;;;;;;;0.43;0.43;;;13.60;99.90;15.20;100504.00;;;;6249706;22;20479;-76
2023/03/30 10:18:43;;;;;;;4.10;1.30;;;14.00;99.90;15.90;100498.00;;;;6249862;22;20149;-76
2023/03/30 10:33:29;;;;;;;4.60;4.23;;;14.40;99.90;15.40;100504.00;;;;5070229;28;20574;-75
2023/03/30 10:35:59;;;;;;;3.23;0.80;;;14.40;99.90;15.90;100524.00;;;;5029524;28;20188;-75
2023/03/30 10:38:38;;;;;;;0.50;0.50;;;14.60;99.90;16.50;100518.00;;;;5043652;28;20185;-75
2023/03/30 10:41:23;;;;;;;5.00;1.37;;;14.70;99.90;15.90;100523.00;;;;5047013;28;20180;-75
2023/03/30 10:43:51;;;;;;;1.23;1.23;;;14.60;99.90;15.80;100526.00;;;;5040954;28;20207;-75
2023/03/30 10:46:45;;;;;;;6.73;1.57;;;14.60;99.90;16.20;100558.00;;;;5049384;28;20192;-75
2023/03/30 10:49:57;;;;;;;4.90;1.40;;;14.80;99.90;16.00;100565.00;;;;5048643;28;20219;-75
2023/03/30 10:53:08;;;;;;;1.07;0.73;;;14.80;99.90;16.70;100568.00;;;;5040922;28;20215;-74
2023/03/30 10:56:14;;;;;;;6.63;1.60;;;14.90;99.90;17.10;100557.00;;;;5023161;28;20204;-75
2023/03/30 10:58:51;;;;;;;4.73;2.00;;;15.10;99.90;17.90;100580.00;;;;5039558;28;20241;-74
2023/03/30 11:01:54;;;;;;;4.63;2.07;;;15.60;99.90;17.60;100580.00;;;;5045494;28;20198;-74
2023/03/30 11:04:36;;;;;;;1.17;0.83;;;15.90;99.90;18.00;100586.00;;;;5046581;28;20193;-75
2023/03/30 11:07:28;;;;;;;0.93;0.87;;;16.00;99.90;17.30;100586.00;;;;5040391;28;20265;-75
2023/03/30 11:10:20;;;;;;;3.23;0.77;;;16.00;99.90;17.20;100574.00;;;;5059688;28;20280;-75
2023/03/30 11:12:56;;;;;;;8.37;1.93;;;15.80;99.90;17.30;100588.00;;;;5041102;28;20199;-75
2023/03/30 11:15:47;;;;;;;3.53;1.07;;;16.00;99.90;17.60;100594.00;;;;5033998;28;20591;-75
2023/03/30 11:18:56;;;;;;;4.97;1.47;;;16.00;99.90;16.70;100589.00;;;;5049886;28;20657;-75
2023/03/30 11:22:06;;;;;;;9.23;2.53;;;15.50;99.90;16.80;100600.00;;;;5041481;28;20201;-75
2023/03/30 11:24:34;;;;;;;9.97;4.17;;;15.40;99.90;17.70;100543.00;;;;5036898;28;20186;-75
2023/03/30 11:27:32;;;;;;;5.23;1.57;;;15.80;99.90;17.00;100590.00;;;;5046817;28;20222;-75
2023/03/30 11:30:39;;;;;;;1.17;1.07;;;15.80;99.90;18.80;100595.00;;;;5048689;28;20663;-75
2023/03/30 11:33:47;;;;;;;7.97;1.47;;;16.30;99.90;17.20;100592.00;;;;5061575;28;20236;-75
2023/03/30 11:36:45;;;;;;;2.60;1.47;;;16.00;99.90;17.90;100561.00;;;;5017775;28;20199;-76
2023/03/30 11:39:15;;;;;;;6.07;1.97;;;15.80;99.90;16.60;100574.00;;;;5040845;28;20238;-79
2023/03/30 11:41:46;;;;;;;5.17;1.97;;;15.60;99.90;16.50;100592.00;;;;5047999;28;20197;-72
2023/03/30 11:44:21;;;;;;;0.30;0.30;;;15.30;99.90;16.70;100582.00;;;;5036463;28;20185;-77
2023/03/30 11:47:16;;;;;;;1.53;0.57;;;15.20;99.90;17.00;100597.00;;;;5029948;28;20347;-75
2023/03/30 11:49:52;;;;;;;7.50;2.67;;;15.40;99.90;17.50;100577.00;;;;5035085;28;20189;-75
2023/03/30 11:52:30;;;;;;;3.67;1.60;;;15.80;99.90;18.10;100601.00;;;;5031668;28;20210;-74
2023/03/30 11:55:19;;;;;;;2.53;1.07;;;16.10;99.90;17.30;100594.00;;;;5032741;28;20787;-74
2023/03/30 11:58:03;;;;;;;4.40;1.80;;;15.90;99.90;17.60;100591.00;;;;5060132;28;20555;-74
2023/03/30 12:01:04;;;;;;;7.30;1.43;;;16.00;99.90;16.90;100588.00;;;;5035334;28;20638;-74
2023/03/30 12:06:48;;;;;;;21.47;5.50;;;15.70;99.90;17.00;100587.00;;;;5041708;28;20190;-74
2023/03/30 12:09:44;;;;;;;11.43;2.00;;;15.60;99.90;16.50;100529.00;;;;5035547;28;20182;-74
2023/03/30 12:12:16;;;;;;;7.90;1.50;;;15.50;99.90;17.50;100592.00;;;;5033479;28;20219;-73
2023/03/30 12:15:25;;;;;;;7.70;3.53;;;15.80;99.90;17.20;100594.00;;;;5033960;28;20192;-74
2023/03/30 12:18:33;;;;;;;6.90;1.47;;;16.10;99.90;18.10;100598.00;;;;5035102;28;20190;-73
2023/03/30 12:21:39;;;;;;;4.57;1.50;;;16.40;99.90;18.80;100569.00;;;;5034789;28;20720;-74
2023/03/30 12:24:34;;;;;;;0.10;0.10;;;16.90;99.90;20.30;100601.00;;;;5020710;28;20176;-74
2023/03/30 12:27:00;;;;;;;5.73;2.10;;;17.40;99.90;18.30;100611.00;;;;5058216;28;20646;-74
2023/03/30 12:29:47;;;;;;;0.87;0.60;;;16.80;99.90;17.90;100614.00;;;;5027403;28;20360;-74
2023/03/30 12:32:34;;;;;;;6.30;5.37;;;16.60;99.90;18.80;100607.00;;;;5043779;28;20228;-73
2023/03/30 12:35:00;;;;;;;6.77;1.60;;;16.70;99.90;18.00;100595.00;;;;5039576;28;20191;-73
2023/03/30 12:37:47;;;;;;;1.87;0.97;;;16.40;99.90;17.10;100597.00;;;;5030694;28;20558;-74
2023/03/30 12:40:21;;;;;;;7.03;0.97;;;16.00;99.90;18.10;100602.00;;;;5027681;28;20546;-74
2023/03/30 12:43:38;;;;;;;4.27;1.80;;;16.20;99.90;17.60;100612.00;;;;5021930;28;20200;-74
2023/03/30 12:46:41;;;;;;;4.20;1.47;;;16.30;99.90;16.50;100595.00;;;;5022244;28;20199;-74
2023/03/30 12:49:59;;;;;;;2.97;1.77;;;15.90;99.90;16.00;100566.00;;;;4994209;28;20280;-74
2023/03/30 12:52:45;;;;;;;0.60;0.60;;;15.00;99.90;16.60;100572.00;;;;5015896;28;20560;-73
2023/03/30 12:55:20;;;;;;;6.23;2.50;;;14.90;99.90;16.50;100557.00;;;;5029128;28;20177;-74
2023/03/30 12:58:16;;;;;;;2.70;0.97;;;14.90;99.90;15.60;100561.00;;;;5032333;28;20220;-74
2023/03/30 13:01:04;;;;;;;0.50;0.27;;;14.80;99.90;17.50;100575.00;;;;5014822;28;20204;-73
2023/03/30 13:03:51;;;;;;;4.97;2.13;;;15.30;99.90;16.80;100588.00;;;;5032935;28;20190;-74
2023/03/30 13:06:50;;;;;;;7.27;1.63;;;15.20;99.90;16.80;100569.00;;;;5015747;28;20191;-73
2023/03/30 13:09:22;;;;;;;3.50;1.53;;;15.30;99.90;17.00;100588.00;;;;5015412;28;20197;-73
2023/03/30 13:11:56;;;;;;;3.93;1.33;;;15.20;99.90;16.80;100592.00;;;;5034163;28;20210;-74
2023/03/30 13:14:34;;;;;;;4.73;1.10;;;15.30;99.90;16.70;100591.00;;;;5030054;28;20641;-73
2023/03/30 13:17:00;;;;;;;1.93;1.03;;;15.50;99.90;17.30;100545.00;;;;5026906;28;20186;-73
2023/03/30 13:19:32;;;;;;;0.67;0.67;;;15.50;99.90;17.50;100577.00;;;;5033979;28;20183;-73
2023/03/30 13:22:14;;;;;;;5.37;1.27;;;15.70;99.90;17.10;100593.00;;;;5031620;28;20318;-73
2023/03/30 13:25:02;;;;;;;6.47;2.00;;;15.90;99.90;17.70;100586.00;;;;5033756;28;20191;-73
2023/03/30 13:27:36;;;;;;;2.33;0.70;;;15.80;99.90;17.60;100595.00;;;;5031103;28;20257;-73
2023/03/30 13:30:08;;;;;;;5.77;1.03;;;15.90;99.90;17.30;100524.00;;;;5013742;28;20246;-74
2023/03/30 13:33:03;;;;;;;10.50;3.10;;;15.80;99.90;18.40;100586.00;;;;5029839;28;20261;-74
2023/03/30 13:36:00;;;;;;;9.57;1.77;;;16.20;99.90;17.30;100583.00;;;;5032593;28;20275;-74
2023/03/30 13:39:03;;;;;;;3.10;1.30;;;16.00;99.90;18.50;100534.00;;;;5030051;28;20192;-74
2023/03/30 13:41:49;;;;;;;10.93;0.90;;;16.30;99.90;17.00;100569.00;;;;5032335;28;20191;-74
2023/03/30 13:48:00;;;;;;;2.43;0.50;;;16.00;99.90;17.60;100564.00;;;;5027040;28;20195;-74
2023/03/30 13:50:30;;;;;;;2.70;0.80;;;16.10;99.90;17.20;100529.00;;;;5033890;28;20201;-73
2023/03/30 13:53:00;;;;;;;3.57;1.37;;;15.90;99.90;17.10;100557.00;;;;5012361;28;20738;-73
2023/03/30 13:55:35;;;;;;;2.13;0.87;;;15.90;99.90;19.30;100565.00;;;;5044074;28;20277;-74
2023/03/30 13:58:32;;;;;;;0.13;0.13;;;16.40;99.90;19.20;100577.00;;;;5021511;28;20190;-74
2023/03/30 14:01:11;;;;;;;2.37;0.90;;;16.80;99.90;17.60;100564.00;;;;5032080;28;20174;-73
2023/03/30 14:03:54;;;;;;;3.30;0.33;;;16.40;99.90;18.50;100565.00;;;;5016090;28;20205;-74
2023/03/30 14:09:47;;;;;;;3.60;1.40;;;16.00;99.90;18.50;100590.00;;;;5032301;28;20245;-74
2023/03/30 14:12:20;;;;;;;6.63;1.77;;;16.40;99.90;17.50;100572.00;;;;4997661;28;20300;-73
2023/03/30 14:14:59;;;;;;;5.00;1.57;;;16.20;99.90;17.90;100587.00;;;;5029823;28;20193;-74
2023/03/30 14:17:53;;;;;;;0.57;0.40;;;16.00;99.90;17.80;100582.00;;;;5026758;28;20271;-74
2023/03/30 14:21:01;;;;;;;1.30;0.63;;;16.00;99.90;17.60;100572.00;;;;5034412;28;20197;-74
2023/03/30 14:23:53;;;;;;;2.03;0.87;;;16.00;99.90;17.90;100573.00;;;;5031925;28;20277;-74
2023/03/30 14:29:50;;;;;;;2.00;1.07;;;16.30;99.90;17.90;100576.00;;;;5038655;28;20257;-74
2023/03/30 14:32:39;;;;;;;3.73;1.03;;;16.50;99.90;17.80;100578.00;;;;5021251;28;20223;-74
2023/03/30 14:35:07;;;;;;;1.63;0.80;;;16.30;99.90;17.60;100570.00;;;;5026774;28;20184;-74
2023/03/30 14:37:34;;;;;;;5.87;1.33;;;16.20;99.90;17.20;100568.00;;;;5012182;28;20249;-74
2023/03/30 14:40:00;;;;;;;1.03;1.03;;;15.90;99.90;17.60;100564.00;;;;5058655;28;20191;-73
2023/03/30 14:42:35;;;;;;;2.83;0.80;;;15.90;99.90;18.10;100551.00;;;;5028455;28;20566;-75
2023/03/30 14:45:01;;;;;;;2.17;0.67;;;16.20;99.90;18.50;100565.00;;;;5045055;28;20191;-74
2023/03/30 14:48:01;;;;;;;0.77;0.57;;;16.40;99.90;17.40;100558.00;;;;5032682;28;20645;-74
2023/03/30 14:51:18;;;;;;;1.60;0.80;;;16.20;99.90;19.00;100565.00;;;;5031563;28;20212;-74
2023/03/30 14:53:54;;;;;;;6.50;0.83;;;16.40;99.90;17.40;100575.00;;;;5033378;28;20188;-74
2023/03/30 14:56:58;;;;;;;2.13;0.90;;;16.20;99.90;17.40;100576.00;;;;5028929;28;20211;-73
2023/03/30 14:59:31;;;;;;;2.10;0.93;;;16.10;99.90;18.00;100577.00;;;;5024047;28;20184;-73
2023/03/30 15:01:59;;;;;;;3.70;0.97;;;16.20;99.90;17.80;100560.00;;;;5027883;28;20214;-74
2023/03/30 15:04:34;;;;;;;0.80;0.80;;;16.00;99.90;18.80;100564.00;;;;5031668;28;20192;-74
2023/03/30 15:07:00;;;;;;;24.70;2.10;;;16.30;99.90;19.00;100571.00;;;;5035648;28;20599;-74
2023/03/30 15:09:47;;;;;;;8.57;1.20;;;16.50;99.90;18.20;100575.00;;;;5031209;28;20234;-74
2023/03/30 15:12:37;;;;;;;0.40;0.40;;;16.60;99.90;17.50;100556.00;;;;5032632;28;20207;-74
2023/03/30 15:15:16;;;;;;;5.10;0.83;;;16.10;99.90;18.20;100562.00;;;;5028230;28;20189;-74
2023/03/30 15:18:17;;;;;;;11.30;0.90;;;16.10;99.90;17.40;100556.00;;;;5029175;28;20235;-74
2023/03/30 15:21:26;;;;;;;0.40;0.30;;;16.00;99.90;17.30;100559.00;;;;5031205;28;20219;-74
2023/03/30 15:24:15;;;;;;;0.63;0.47;;;15.90;99.90;17.50;100545.00;;;;5034916;28;20205;-74
2023/03/30 15:27:06;;;;;;;4.40;1.10;;;15.90;99.90;17.40;100565.00;;;;5041248;28;20203;-74
2023/03/30 15:30:25;;;;;;;1.50;0.83;;;15.70;99.90;17.10;100552.00;;;;5040695;28;20191;-74
2023/03/30 15:34:21;;;;;;;0.60;0.57;;;15.60;99.90;17.30;100559.00;;;;5051164;28;20213;-74
2023/03/30 15:37:38;;;;;;;4.90;1.47;;;15.70;99.90;17.10;100559.00;;;;5035508;28;20277;-74
2023/03/30 15:40:45;;;;;;;2.17;1.97;;;15.70;99.90;17.50;100559.00;;;;5050146;28;20268;-74
2023/03/30 15:43:25;;;;;;;2.87;1.30;;;15.80;99.90;17.30;100547.00;;;;5034441;28;20637;-74
2023/03/30 15:46:30;;;;;;;4.03;0.70;;;15.70;99.90;17.00;100542.00;;;;5018572;28;20549;-74
2023/03/30 15:49:19;;;;;;;5.50;0.97;;;15.70;99.90;17.60;100548.00;;;;5023946;28;20209;-74
2023/03/30 15:52:31;;;;;;;4.33;1.00;;;15.80;99.90;17.70;100542.00;;;;5035357;28;20204;-74
2023/03/30 15:55:44;;;;;;;3.63;1.60;;;15.90;99.90;17.00;100529.00;;;;5025129;28;20216;-74
2023/03/30 15:58:48;;;;;;;1.97;1.00;;;15.70;99.90;17.30;100543.00;;;;5034552;28;20648;-74
2023/03/30 16:01:42;;;;;;;2.53;1.57;;;15.80;99.90;16.50;100476.00;;;;5014227;28;20241;-74
2023/03/30 16:04:30;;;;;;;0.63;0.50;;;15.60;99.90;16.70;100474.00;;;;5031913;28;20221;-74
2023/03/30 16:07:20;;;;;;;2.73;0.73;;;15.50;99.90;17.20;100533.00;;;;5017864;28;20194;-76
2023/03/30 16:10:11;;;;;;;1.77;0.93;;;15.50;99.90;17.80;100540.00;;;;5026708;28;20631;-80
2023/03/30 16:12:43;;;;;;;9.83;1.73;;;15.70;99.90;17.00;100527.00;;;;5032303;28;20259;-72
2023/03/30 16:15:23;;;;;;;6.47;1.80;;;15.70;99.90;17.20;100528.00;;;;5034087;28;20403;-72
2023/03/30 16:17:55;;;;;;;2.10;0.60;;;15.70;99.90;17.20;100529.00;;;;5034226;28;20254;-73
2023/03/30 16:20:24;;;;;;;2.70;1.03;;;15.60;99.90;17.60;100529.00;;;;5029946;28;20542;-73
2023/03/30 16:22:53;;;;;;;2.83;0.57;;;15.70;99.90;16.90;100512.00;;;;5060204;28;20522;-76
2023/03/30 16:25:23;;;;;;;7.37;1.63;;;15.60;99.90;17.40;100523.00;;;;5035374;28;20664;-76
2023/03/30 16:28:33;;;;;;;1.23;0.50;;;15.60;99.90;17.90;100521.00;;;;5034851;28;20184;-76
2023/03/30 16:31:37;;;;;;;5.63;1.43;;;15.60;99.90;17.50;100533.00;;;;5028119;28;20531;-76
2023/03/30 16:34:52;;;;;;;2.70;1.37;;;15.70;99.90;17.10;100506.00;;;;5011000;28;20663;-76
2023/03/30 16:38:25;;;;;;;0.60;0.60;;;15.60;99.90;17.60;100514.00;;;;5014178;28;20183;-76
2023/03/30 16:41:27;;;;;;;1.43;1.03;;;15.80;99.90;17.30;100493.00;;;;5021026;28;20283;-76
2023/03/30 16:44:35;;;;;;;2.63;1.50;;;15.40;99.90;16.80;100509.00;;;;5023913;28;20189;-76
2023/03/30 16:47:45;;;;;;;4.47;0.67;;;15.50;99.90;17.30;100529.00;;;;5028334;28;20206;-76
2023/03/30 16:50:38;;;;;;;3.30;1.10;;;15.50;99.90;17.10;100515.00;;;;5035062;28;20200;-76
2023/03/30 16:53:46;;;;;;;1.30;0.47;;;15.60;99.90;17.70;100515.00;;;;5035391;28;20217;-76
2023/03/30 16:56:35;;;;;;;0.50;0.50;;;15.60;99.90;17.50;100482.00;;;;5025700;28;20186;-76
2023/03/30 16:59:42;;;;;;;7.30;1.47;;;15.70;99.90;17.30;100523.00;;;;5028576;28;20184;-76
2023/03/30 17:02:50;;;;;;;7.23;1.37;;;15.60;99.90;17.90;100528.00;;;;5029285;28;20198;-76
2023/03/30 17:05:39;;;;;;;3.60;0.97;;;15.80;99.90;16.70;100536.00;;;;5033159;28;20276;-76
2023/03/30 17:08:26;;;;;;;2.93;0.50;;;15.70;99.90;16.80;100473.00;;;;5030342;28;20207;-76
2023/03/30 17:11:20;;;;;;;8.20;1.40;;;15.50;99.90;17.00;100528.00;;;;5059985;28;20205;-76
2023/03/30 17:14:08;;;;;;;6.77;1.87;;;15.40;99.90;17.00;100462.00;;;;5021721;28;20180;-76
2023/03/30 17:17:11;;;;;;;0.30;0.30;;;15.30;99.90;17.30;100540.00;;;;5014279;28;20189;-76
2023/03/30 17:20:19;;;;;;;2.60;0.80;;;15.40;99.90;17.20;100522.00;;;;5016741;28;20189;-76
2023/03/30 17:23:25;;;;;;;1.40;0.93;;;15.30;99.90;17.70;100525.00;;;;5033114;28;20198;-76
2023/03/30 17:26:15;;;;;;;0.30;0.30;;;15.40;99.90;17.50;100516.00;;;;5018988;28;20689;-76
2023/03/30 17:28:48;;;;;;;2.80;1.77;;;15.50;99.90;16.40;100521.00;;;;5014798;28;20209;-76
2023/03/30 17:31:18;;;;;;;3.80;0.50;;;15.20;99.90;17.60;100519.00;;;;5037303;28;20199;-77
2023/03/30 17:33:48;;;;;;;3.80;1.27;;;15.30;99.90;17.00;100531.00;;;;5015930;28;20198;-76
2023/03/30 17:36:24;;;;;;;4.43;1.27;;;15.40;99.90;16.80;100509.00;;;;5039828;28;20244;-76
2023/03/30 17:38:55;;;;;;;0.67;0.67;;;15.20;99.90;17.30;100508.00;;;;5031310;28;20180;-76
2023/03/30 17:41:24;;;;;;;0.40;0.40;;;15.30;99.90;16.50;100513.00;;;;5032293;28;20616;-76
2023/03/30 17:43:55;;;;;;;1.30;0.30;;;15.00;99.90;16.80;100524.00;;;;5027451;28;20181;-76
2023/03/30 17:46:21;;;;;;;2.57;0.63;;;15.00;99.90;17.40;100474.00;;;;5034075;28;20169;-76
2023/03/30 17:49:13;;;;;;;2.43;0.67;;;15.00;99.90;17.20;100527.00;;;;5032524;28;20190;-76
2023/03/30 17:51:39;;;;;;;0.77;0.30;;;15.10;99.90;17.30;100516.00;;;;5032514;28;20201;-76
2023/03/30 17:54:05;;;;;;;0.10;0.10;;;15.00;99.90;17.30;100530.00;;;;5039957;28;20183;-76
2023/03/30 17:56:31;;;;;;;9.63;1.33;;;14.90;99.90;16.80;100521.00;;;;5033269;28;20188;-76
2023/03/30 17:58:57;;;;;;;6.43;0.90;;;14.90;99.90;16.70;100524.00;;;;5032001;28;20546;-76
2023/03/30 18:01:26;;;;;;;0.73;0.47;;;14.80;99.90;16.10;100509.00;;;;5007875;28;20690;-76
2023/03/30 18:03:55;;;;;;;2.67;1.93;;;14.60;99.90;16.30;100504.00;;;;5032414;28;20191;-76
2023/03/30 18:06:23;;;;;;;1.40;1.40;;;14.50;99.90;16.50;100516.00;;;;5022996;28;20193;-76
2023/03/30 18:09:31;;;;;;;0.60;0.43;;;14.60;99.90;16.20;100522.00;;;;5016084;28;20211;-76
2023/03/30 18:12:23;;;;;;;0.20;0.20;;;14.40;99.90;16.20;100513.00;;;;5026316;28;20226;-76
2023/03/30 18:15:44;;;;;;;2.23;1.40;;;14.40;99.90;16.40;100519.00;;;;5024084;28;20188;-76
2023/03/30 18:18:38;;;;;;;3.60;0.40;;;14.40;99.90;16.20;100453.00;;;;5028933;28;20193;-76
2023/03/30 18:21:44;;;;;;;0.30;0.30;;;14.30;99.90;16.50;100515.00;;;;5021006;28;20280;-76
2023/03/30 18:24:39;;;;;;;0.30;0.30;;;14.30;99.90;16.80;100486.00;;;;5029354;28;20208;-76
2023/03/30 18:27:46;;;;;;;0.13;0.13;;;14.30;99.90;17.10;100489.00;;;;5018029;28;20799;-76
2023/03/30 18:30:40;;;;;;;0.20;0.20;;;14.50;99.90;16.40;100380.00;;;;5025386;28;20204;-76
2023/03/30 18:33:54;;;;;;;0.20;0.20;;;14.40;99.90;16.20;100512.00;;;;5026876;28;20240;-77
2023/03/30 18:37:01;;;;;;;0.10;0.10;;;14.40;99.90;16.90;100516.00;;;;5029447;28;20192;-76
2023/03/30 18:39:53;;;;;;;0.40;0.40;;;14.30;99.90;18.20;100514.00;;;;5027482;28;20201;-76
2023/03/30 18:42:48;;;;;;;0.20;0.20;;;14.70;99.90;17.80;100451.00;;;;5018855;28;20197;-76
2023/03/30 18:46:00;;;;;;;0.20;0.20;;;14.80;99.90;17.70;100507.00;;;;5019458;28;20247;-76
2023/03/30 18:48:52;;;;;;;0.20;0.20;;;14.70;99.90;17.60;100490.00;;;;5014747;28;20696;-77
2023/03/30 18:52:16;;;;;;;0.20;0.20;;;14.60;99.90;17.60;100498.00;;;;5041245;28;20210;-77
2023/03/30 18:55:28;;;;;;;0.37;0.37;;;14.50;99.90;17.10;100499.00;;;;5046038;28;20200;-77
2023/03/30 18:58:25;;;;;;;0.87;0.60;;;14.50;99.90;15.70;100495.00;;;;5016317;28;20200;-77
2023/03/30 19:01:36;;;;;;;8.20;0.97;;;14.10;99.90;16.10;100495.00;;;;5068481;28;20656;-77
2023/03/30 19:04:43;;;;;;;0.50;0.50;;;14.10;99.90;17.20;100493.00;;;;5019733;28;20201;-77
2023/03/30 19:07:48;;;;;;;0.20;0.20;;;14.10;99.90;16.70;100500.00;;;;5019184;28;20225;-76
2023/03/30 19:11:03;;;;;;;0.60;0.33;;;14.20;99.90;16.30;100496.00;;;;5018963;28;20201;-77
2023/03/30 19:14:02;;;;;;;0.20;0.20;;;14.20;99.90;16.50;100498.00;;;;5034750;28;20225;-76
2023/03/30 19:16:53;;;;;;;0.60;0.60;;;13.90;99.90;17.20;100501.00;;;;5029832;28;20198;-76
2023/03/30 19:19:52;;;;;;;0.10;0.10;;;14.10;99.90;17.50;100505.00;;;;5035096;28;20649;-77
2023/03/30 19:22:33;;;;;;;0.27;0.27;;;14.40;99.90;15.80;100485.00;;;;5045027;28;20192;-77
2023/03/30 19:25:10;;;;;;;0.53;0.53;;;14.00;99.90;16.10;100514.00;;;;5009752;28;20194;-77
2023/03/30 19:28:03;;;;;;;6.90;2.97;;;14.00;99.90;15.60;100495.00;;;;5041932;28;20261;-76
2023/03/30 19:30:33;;;;;;;3.33;2.43;;;13.70;99.90;15.70;100325.00;;;;5012388;28;20265;-76
2023/03/30 19:33:22;;;;;;;0.63;0.60;;;13.60;99.90;15.60;100493.00;;;;5034699;28;20230;-76
2023/03/30 19:36:11;;;;;;;0.10;0.10;;;13.60;99.90;15.80;100501.00;;;;5017136;28;20216;-77
2023/03/30 19:38:48;;;;;;;0.13;0.13;;;13.60;99.90;15.30;100489.00;;;;5017970;28;20200;-77
2023/03/30 19:41:18;;;;;;;0.83;0.63;;;13.50;99.90;15.50;100506.00;;;;5034688;28;20248;-77
2023/03/30 19:43:49;;;;;;;0.53;0.47;;;13.50;99.90;16.40;100498.00;;;;5031545;28;20594;-77